»·PEaware :: JZA103 KGEG-KSEA

JZA103 :: KGEG-KSEA

FLIGHT INFORMATION

Flight Status: Arrived
Operator:
Air Canada Jazz
More flights by this operator :: More flights under this callsign
Pilot: Mike G. (11411)
Aircraft: CANADAIR CL-600 CRJ-900
(CRJ9)
More flights by this aircraft type
Origin: KGEG Spokane Intl
United States
Destination: KSEA Seattle-Tacoma Intl
United States
More flights between these airports :: More routes between these airports
Route: +GEG5 TEMPL GLASR1
File this flight plan on PilotEdge
Remarks: RMK / SIMBRIEF
Altitude:
(Current/Filed)
32,000ft
Speed:
(Current/Filed)
440kts
Departed: 14-May-19 02:41 PM
Arrived: 14-May-19 03:26 PM
Distance/Time
Traveled:
194nm/0:45
Distance/Time
To Go:
Arrived

Flight Plot

Page will automatically refresh every two minutes.

Flight plan parsing failed; only flown route is shown


Map Options




Map Legend


Flown Route
Filed Route
Departure Airport
Arrival Airport
Navaid (VOR, NDB)
Fix

Horizontal Profiles

Position Reports

Time Latitude Longitude Heading Altitude Ground
Speed
14-May-19 14:06 47.625598 -117.536907 222 2379ft 0kts
14-May-19 14:07 47.625598 -117.536907 222 2379ft 0kts
14-May-19 14:08 47.625598 -117.536907 222 2379ft 0kts
14-May-19 14:09 47.625598 -117.536907 222 2379ft 0kts
14-May-19 14:10 47.625598 -117.536907 222 2379ft 0kts
14-May-19 14:11 47.625598 -117.536907 222 2379ft 0kts
14-May-19 14:12 47.625598 -117.536907 222 2379ft 0kts
14-May-19 14:13 47.625598 -117.536907 222 2379ft 0kts
14-May-19 14:14 47.625598 -117.536907 222 2379ft 0kts
14-May-19 14:15 47.625598 -117.536907 222 2379ft 0kts
14-May-19 14:16 47.625598 -117.536907 222 2379ft 0kts
14-May-19 14:17 47.625598 -117.536907 222 2379ft 0kts
14-May-19 14:18 47.625598 -117.536907 222 2379ft 0kts
14-May-19 14:19 47.625598 -117.536907 222 2379ft 0kts
14-May-19 14:20 47.625598 -117.536907 222 2379ft 0kts
14-May-19 14:21 47.625598 -117.536907 222 2379ft 0kts
14-May-19 14:22 47.625598 -117.536907 222 2379ft 0kts
14-May-19 14:23 47.625598 -117.536907 222 2379ft 0kts
14-May-19 14:24 47.625598 -117.536907 222 2379ft 0kts
14-May-19 14:25 47.625598 -117.536907 222 2379ft 0kts
14-May-19 14:26 47.625598 -117.536907 222 2379ft 0kts
14-May-19 14:27 47.625598 -117.536907 222 2379ft 0kts
14-May-19 14:28 47.625607 -117.536895 222 2379ft 1kts
14-May-19 14:29 47.625838 -117.536578 222 2379ft 0kts
14-May-19 14:30 47.625514 -117.536600 144 2379ft 4kts
14-May-19 14:31 47.624983 -117.534247 56 2379ft 8kts
14-May-19 14:32 47.626624 -117.531211 104 2379ft 10kts
14-May-19 14:33 47.628313 -117.527256 46 2379ft 13kts
14-May-19 14:34 47.631284 -117.522638 46 2379ft 17kts
14-May-19 14:35 47.631788 -117.519537 134 2379ft 0kts
14-May-19 14:36 47.631787 -117.519536 134 2379ft 0kts
14-May-19 14:37 47.631786 -117.519534 134 2379ft 0kts
14-May-19 14:38 47.631784 -117.519530 134 2379ft 0kts
14-May-19 14:39 47.630576 -117.519259 223 2379ft 0kts
14-May-19 14:40 47.617406 -117.539125 225 2479ft 170kts
14-May-19 14:41 47.579298 -117.592183 225 5272ft 216kts
14-May-19 14:42 47.535626 -117.658721 226 8689ft 253kts
14-May-19 14:43 47.532510 -117.756528 299 11729ft 290kts
14-May-19 14:44 47.566263 -117.873096 272 12937ft 343kts
14-May-19 14:45 47.578788 -118.020360 275 15368ft 373kts
14-May-19 14:46 47.596393 -118.174870 273 18013ft 387kts
14-May-19 14:47 47.613621 -118.335565 273 20394ft 401kts
14-May-19 14:48 47.631172 -118.501567 274 22469ft 414kts
14-May-19 14:49 47.648969 -118.673327 273 24350ft 426kts
14-May-19 14:50 47.666859 -118.848336 273 26182ft 434kts
14-May-19 14:51 47.685036 -119.027612 273 27868ft 438kts
14-May-19 14:52 47.702287 -119.198587 271 30883ft 400kts
14-May-19 14:53 47.718150 -119.363554 271 31766ft 411kts
14-May-19 14:54 47.733821 -119.534543 271 31978ft 421kts
14-May-19 14:55 47.747860 -119.705821 269 31963ft 414kts
14-May-19 14:56 47.760908 -119.875661 269 31314ft 415kts
14-May-19 14:57 47.773155 -120.037241 269 28257ft 374kts
14-May-19 14:58 47.784187 -120.185364 269 25251ft 348kts
14-May-19 14:59 47.794355 -120.323337 268 22507ft 329kts
14-May-19 15:00 47.803952 -120.455820 269 20280ft 316kts
14-May-19 15:01 47.813171 -120.584433 268 18078ft 309kts
14-May-19 15:02 47.821891 -120.710673 268 15877ft 303kts
14-May-19 15:03 47.830554 -120.834458 268 13685ft 299kts
14-May-19 15:04 47.838778 -120.956742 268 11978ft 283kts
14-May-19 15:06 47.846006 -121.065876 267 11948ft 259kts
14-May-19 15:07 47.853005 -121.174781 267 11970ft 270kts
14-May-19 15:08 47.860550 -121.289933 268 11974ft 288kts
14-May-19 15:09 47.868190 -121.409838 268 11982ft 290kts
14-May-19 15:10 47.875689 -121.528965 268 11984ft 287kts
14-May-19 15:11 47.882843 -121.646207 268 11984ft 279kts
14-May-19 15:12 47.859411 -121.743607 223 11986ft 249kts
14-May-19 15:13 47.807203 -121.811098 220 11986ft 251kts
14-May-19 15:14 47.755015 -121.881750 220 11988ft 254kts
14-May-19 15:15 47.702540 -121.952490 220 9896ft 265kts
14-May-19 15:16 47.670058 -122.045734 272 7286ft 277kts
14-May-19 15:17 47.685142 -122.151788 277 5982ft 242kts
14-May-19 15:18 47.699926 -122.246622 277 4025ft 226kts
14-May-19 15:19 47.688785 -122.320314 196 3979ft 185kts
14-May-19 15:20 47.642235 -122.303818 179 3744ft 168kts
14-May-19 15:21 47.596501 -122.306867 181 2876ft 155kts
14-May-19 15:22 47.558299 -122.306802 180 2203ft 130kts
14-May-19 15:23 47.522923 -122.307206 181 1655ft 134kts
14-May-19 15:24 47.485896 -122.307371 181 814ft 129kts
14-May-19 15:24 47.455812 -122.307752 182 369ft 110kts
14-May-19 15:26 47.445779 -122.306722 85 369ft 0kts
14-May-19 15:27 47.445934 -122.305184 91 369ft 0kts
14-May-19 15:27 47.445934 -122.305180 91 369ft 0kts
14-May-19 15:29 47.445934 -122.305179 91 369ft 0kts
14-May-19 15:30 47.445934 -122.305179 91 369ft 0kts
14-May-19 15:30 47.445934 -122.305179 91 369ft 0kts
14-May-19 15:31 47.445934 -122.305179 91 369ft 0kts
14-May-19 15:33 47.445934 -122.305179 91 369ft 0kts
14-May-19 15:33 47.445934 -122.305179 91 369ft 0kts
14-May-19 15:34 47.445934 -122.305179 91 369ft 0kts
14-May-19 15:35 47.445934 -122.305179 91 366ft 0kts
14-May-19 15:36 47.445934 -122.305179 91 366ft 0kts
14-May-19 15:37 47.445934 -122.305179 91 366ft 0kts
14-May-19 15:38 47.445934 -122.305179 91 366ft 0kts

Navigation Log

Ident Type
Flight plan parsing failed, navigation log unavailable